Virtual United States Air Force

 METAR AND TAF INFORMATION
METAR FOR EPZG
ADDS - METARS form results

(1314 UTC 25 October 2020)
Data provider http://aviationweather.gov/metar/data/
 
METAR text: EPZG 251300Z 12007KT 090V180 CAVOK 17/10 Q1010
Conditions at: EPZG (ZIELONA GORA , PL) observed 1300 UTC 25 October 2020
Temperature: 17.0°C (63°F)
Dewpoint: 10.0°C (50°F) [RH = 63%]
Pressure (altimeter): 29.82 inches Hg (1010.0 mb)
Winds: from the ESE (120 degrees) at 8 MPH (7 knots; 3.6 m/s)
Visibility: 6 or more miles (10+ km)
Ceiling: ceiling and visibility are OK
Clouds: unknown
Weather: no significant weather observed at this time

METAR text: EPZG 251230Z 12006KT 100V180 CAVOK 17/09 Q1010
Conditions at: EPZG (ZIELONA GORA , PL) observed 1230 UTC 25 October 2020
Temperature: 17.0°C (63°F)
Dewpoint: 9.0°C (48°F) [RH = 59%]
Pressure (altimeter): 29.82 inches Hg (1010.0 mb)
Winds: from the ESE (120 degrees) at 7 MPH (6 knots; 3.1 m/s)
Visibility: 6 or more miles (10+ km)
Ceiling: ceiling and visibility are OK
Clouds: unknown
Weather: no significant weather observed at this time

Forecast for: EPZG (ZIELONA GORA , PL)
Text: TAF EPZG 251130Z 2512/2521 17009KT CAVOK
Forecast period: 1200 to 2100 UTC 25 October 2020
Forecast type: FROM: standard forecast or significant change
Winds: from the S (170 degrees) at 10 MPH (9 knots; 4.6 m/s)
Visibility: 6 or more miles (10+ km)
Ceiling: unknown
Clouds: missing
Weather: NSW  (no significant weather)
Text: PROB30
Forecast period: 1900 to 2100 UTC 25 October 2020
Forecast type: TEMPORARY: The following changes expected for less than half the time period
Visibility: 1.86 miles (2.99 km)
Ceiling: unknown
Clouds: missing
Weather: BR  (mist)

 AIRPORT MAP

 RUNWAY INFORMATION
Runway 06 Runway length 8202 ft Runway width 197 ft
Runway elevation 194 ft Runway displaced threshold 0 ft Runway heading 65
Runway 24 Runway length 8202 ft Runway width 197 ft
Runway elevation 187 ft Runway displaced threshold 0 ft Runway heading 245

 AIRPORT FREQUENCIES
Type TWR Name TWR Frequency 118.75 MHZ

 AIRPORT NEAR NAVIGATION AIDS


Neither the Department of the Air Force, nor any other component of the Department of Defense or Federal Government has approved, endorsed, or authorized this promotion, activity, or organization. Virtual United States Air Force organization is in no way affiliated with the Department of Defense, Department of the Air Force, or any other federal or government entity. Virtual United States Air Force is a group of flight simulation enthusiasts with the common interest of promoting enjoyment and cameraderie through the simulation of military operations and procedures utilizing several flight simulation platforms.

Copyright © vUSAF, LLC // 2018-2020 All Rights Reserved